createdAt,value
2018-12-22T00:00:25.231Z,3.70
2018-12-22T00:02:53.592Z,3.80
2018-12-22T00:05:21.959Z,3.07
2018-12-22T00:07:50.325Z,4.70
2018-12-22T00:10:18.696Z,3.53
2018-12-22T00:12:47.040Z,3.30
2018-12-22T00:15:15.408Z,4.20
2018-12-22T00:17:43.791Z,4.23
2018-12-22T00:20:12.149Z,3.87
2018-12-22T00:22:40.505Z,5.30
2018-12-22T00:25:08.867Z,2.60
2018-12-22T00:27:38.754Z,3.97
2018-12-22T00:30:10.408Z,1.10
2018-12-22T00:32:38.752Z,3.93
2018-12-22T00:35:07.112Z,3.80
2018-12-22T00:37:35.689Z,2.33
2018-12-22T00:40:04.570Z,5.07
2018-12-22T00:42:32.922Z,2.47
2018-12-22T00:45:01.295Z,2.60
2018-12-22T00:47:29.887Z,2.87
2018-12-22T00:49:58.503Z,3.60
2018-12-22T00:52:26.852Z,2.70
2018-12-22T00:54:55.203Z,4.10
2018-12-22T00:57:23.592Z,3.47
2018-12-22T00:59:51.955Z,5.40
2018-12-22T01:02:20.299Z,3.20
2018-12-22T01:04:48.751Z,3.23
2018-12-22T01:07:17.158Z,4.90
2018-12-22T01:09:45.581Z,3.33
2018-12-22T01:12:13.939Z,3.57
2018-12-22T01:14:42.287Z,5.40
2018-12-22T01:17:11.090Z,3.03
2018-12-22T01:19:39.448Z,3.37
2018-12-22T01:22:07.814Z,3.03
2018-12-22T01:24:36.517Z,4.13
2018-12-22T01:27:05.231Z,4.00
2018-12-22T01:29:33.588Z,2.33
2018-12-22T01:32:01.938Z,1.97
2018-12-22T01:34:30.300Z,2.73
2018-12-22T01:36:58.651Z,2.93
2018-12-22T01:39:27.049Z,2.60
2018-12-22T01:41:55.416Z,4.13
2018-12-22T01:44:23.777Z,2.87
2018-12-22T01:46:52.153Z,4.07
2018-12-22T01:49:20.490Z,2.60
2018-12-22T01:51:48.916Z,4.40
2018-12-22T01:54:17.268Z,4.93
2018-12-22T01:56:45.612Z,3.57
2018-12-22T01:59:13.980Z,2.83
2018-12-22T02:01:42.347Z,2.13
2018-12-22T02:04:10.733Z,3.83
2018-12-22T02:06:39.178Z,1.97
2018-12-22T02:09:08.523Z,2.27
2018-12-22T02:11:36.903Z,2.30
2018-12-22T02:14:05.280Z,1.50
2018-12-22T02:16:33.651Z,3.33
2018-12-22T02:19:02.029Z,3.13
2018-12-22T02:21:30.367Z,3.90
2018-12-22T02:23:58.729Z,2.07
2018-12-22T02:26:27.109Z,4.50
2018-12-22T02:28:56.833Z,3.50
2018-12-22T02:31:25.679Z,3.20
2018-12-22T02:33:54.121Z,3.80
2018-12-22T02:36:22.463Z,4.83
2018-12-22T02:38:50.831Z,3.53
2018-12-22T02:41:19.450Z,3.73
2018-12-22T02:43:47.816Z,2.70
2018-12-22T02:46:16.189Z,3.30
2018-12-22T02:48:44.528Z,3.40
2018-12-22T02:51:12.962Z,3.47
2018-12-22T02:53:41.301Z,2.97
2018-12-22T02:56:09.698Z,4.03
2018-12-22T02:58:38.372Z,3.93
2018-12-22T03:01:06.740Z,2.60
2018-12-22T03:03:35.128Z,2.27
2018-12-22T03:06:03.488Z,1.33
2018-12-22T03:08:31.841Z,2.63
2018-12-22T03:11:00.234Z,1.67
2018-12-22T03:13:28.576Z,1.77
2018-12-22T03:15:57.389Z,3.00
2018-12-22T03:18:25.747Z,3.10
2018-12-22T03:20:54.099Z,2.33
2018-12-22T03:23:22.445Z,1.67
2018-12-22T03:25:50.844Z,3.07
2018-12-22T03:28:19.436Z,2.20
2018-12-22T03:30:47.812Z,2.50
2018-12-22T03:33:16.173Z,1.57
2018-12-22T03:35:44.524Z,2.10
2018-12-22T03:38:13.360Z,1.77
2018-12-22T03:40:41.717Z,1.23
2018-12-22T03:43:10.077Z,2.67
2018-12-22T03:45:40.151Z,1.83
2018-12-22T03:48:08.600Z,0.53
2018-12-22T03:50:37.636Z,2.00
2018-12-22T03:53:06.422Z,2.40
2018-12-22T03:55:34.956Z,3.30
2018-12-22T03:58:03.315Z,1.47
2018-12-22T04:00:32.477Z,2.63
2018-12-22T04:03:00.863Z,2.60
2018-12-22T04:05:29.264Z,2.20
2018-12-22T04:07:57.624Z,2.03
2018-12-22T04:10:25.997Z,1.50
2018-12-22T04:12:54.337Z,2.10
2018-12-22T04:15:22.678Z,2.67
2018-12-22T04:17:51.084Z,2.33
2018-12-22T04:20:19.457Z,2.10
2018-12-22T04:22:47.797Z,2.30
2018-12-22T04:25:16.199Z,2.30
2018-12-22T04:27:44.775Z,1.80
2018-12-22T04:30:13.159Z,2.70
2018-12-22T04:32:41.532Z,1.00
2018-12-22T04:35:09.902Z,1.40
2018-12-22T04:37:38.256Z,1.73
2018-12-22T04:40:07.680Z,2.30
2018-12-22T04:42:36.050Z,2.43
2018-12-22T04:45:04.947Z,2.00
2018-12-22T04:47:33.312Z,1.47
2018-12-22T04:50:01.698Z,1.50
2018-12-22T04:52:30.287Z,2.53
2018-12-22T04:54:58.685Z,4.10
2018-12-22T04:57:26.739Z,1.83
2018-12-22T04:59:55.140Z,2.40
2018-12-22T05:02:23.491Z,2.20
2018-12-22T05:04:51.845Z,0.90
2018-12-22T05:07:20.223Z,1.40
2018-12-22T05:09:48.572Z,2.37
2018-12-22T05:12:16.928Z,1.93
2018-12-22T05:14:45.280Z,1.40
2018-12-22T05:17:13.656Z,2.20
2018-12-22T05:19:42.003Z,2.40
2018-12-22T05:22:10.368Z,4.17
2018-12-22T05:24:38.724Z,2.13
2018-12-22T05:27:07.088Z,2.53
2018-12-22T05:29:35.462Z,2.17
2018-12-22T05:32:03.910Z,1.83
2018-12-22T05:34:32.423Z,1.80
2018-12-22T05:37:00.790Z,2.43
2018-12-22T05:39:29.152Z,1.40
2018-12-22T05:41:57.526Z,1.77
2018-12-22T05:44:25.876Z,2.07
2018-12-22T05:46:54.292Z,1.40
2018-12-22T05:49:22.641Z,1.73
2018-12-22T05:51:51.069Z,1.70
2018-12-22T05:54:19.530Z,1.50
2018-12-22T05:56:47.873Z,1.23
2018-12-22T05:59:16.237Z,1.33
2018-12-22T06:01:44.584Z,2.90
2018-12-22T06:04:12.945Z,1.90
2018-12-22T06:06:41.300Z,1.30
2018-12-22T06:09:09.744Z,1.80
2018-12-22T06:11:38.108Z,1.90
2018-12-22T06:14:06.464Z,1.60
2018-12-22T06:16:34.819Z,1.60
2018-12-22T06:19:03.176Z,1.87
2018-12-22T06:21:31.538Z,2.97
2018-12-22T06:24:00.335Z,2.47
2018-12-22T06:26:28.683Z,3.10
2018-12-22T06:28:57.048Z,2.37
2018-12-22T06:31:25.394Z,1.00
2018-12-22T06:33:53.759Z,0.70
2018-12-22T06:36:22.137Z,1.80
2018-12-22T06:38:50.508Z,2.30
2018-12-22T06:41:18.856Z,2.20
2018-12-22T06:43:47.225Z,1.90
2018-12-22T06:46:15.628Z,1.70
2018-12-22T06:48:44.236Z,1.70
2018-12-22T06:51:12.583Z,2.67
2018-12-22T06:53:42.028Z,2.10
2018-12-22T06:56:10.741Z,2.03
2018-12-22T06:58:39.088Z,2.00
2018-12-22T07:01:07.600Z,2.50
2018-12-22T07:03:36.204Z,2.37
2018-12-22T07:06:04.576Z,1.37
2018-12-22T07:08:32.924Z,0.97
2018-12-22T07:11:01.284Z,1.70
2018-12-22T07:13:29.643Z,1.40
2018-12-22T07:15:58.003Z,1.03
2018-12-22T07:18:26.361Z,0.90
2018-12-22T07:20:54.725Z,1.30
2018-12-22T07:23:23.087Z,0.80
2018-12-22T07:25:51.481Z,1.10
2018-12-22T07:28:19.865Z,0.90
2018-12-22T07:30:48.249Z,0.80
2018-12-22T07:33:16.602Z,0.67
2018-12-22T07:35:44.695Z,0.90
2018-12-22T07:38:13.347Z,0.80
2018-12-22T07:40:42.004Z,1.17
2018-12-22T07:43:10.351Z,0.90
2018-12-22T07:45:38.806Z,1.40
2018-12-22T07:48:07.167Z,1.10
2018-12-22T07:50:35.532Z,1.00
2018-12-22T07:53:03.947Z,2.27
2018-12-22T07:55:32.354Z,1.97
2018-12-22T07:58:00.705Z,1.77
2018-12-22T08:00:34.737Z,2.27
2018-12-22T08:02:59.428Z,1.80
2018-12-22T08:05:27.776Z,1.40
2018-12-22T08:07:56.130Z,1.20
2018-12-22T08:10:24.934Z,2.00
2018-12-22T08:12:53.308Z,1.67
2018-12-22T08:15:21.675Z,1.87
2018-12-22T08:17:50.125Z,2.10
2018-12-22T08:20:18.452Z,2.37
2018-12-22T08:22:46.823Z,1.70
2018-12-22T08:25:15.300Z,2.40
2018-12-22T08:27:43.941Z,2.00
2018-12-22T08:30:12.330Z,2.10
2018-12-22T08:32:40.938Z,2.23
2018-12-22T08:35:09.319Z,2.17
2018-12-22T08:37:37.711Z,2.20
2018-12-22T08:40:07.944Z,2.20
2018-12-22T08:42:36.286Z,3.33
2018-12-22T08:45:06.250Z,2.70
2018-12-22T08:47:34.638Z,1.67
2018-12-22T08:50:09.068Z,3.80
2018-12-22T08:52:33.903Z,2.50
2018-12-22T08:55:02.265Z,3.40
2018-12-22T08:57:30.624Z,2.63
2018-12-22T08:59:59.464Z,2.70
2018-12-22T09:02:27.852Z,3.20
2018-12-22T09:04:56.234Z,3.17
2018-12-22T09:07:24.588Z,1.47
2018-12-22T09:09:52.960Z,2.60
2018-12-22T09:12:21.325Z,3.93
2018-12-22T09:14:49.806Z,2.80
2018-12-22T09:17:18.143Z,2.70
2018-12-22T09:19:46.617Z,2.73
2018-12-22T09:22:14.971Z,2.53
2018-12-22T09:24:43.413Z,2.80
2018-12-22T09:27:11.763Z,3.60
2018-12-22T09:29:40.685Z,2.90
2018-12-22T09:32:09.330Z,3.30
2018-12-22T09:34:37.715Z,4.23
2018-12-22T09:37:06.959Z,3.13
2018-12-22T09:39:35.791Z,3.10
2018-12-22T09:42:04.156Z,2.67
2018-12-22T09:44:32.544Z,3.43
2018-12-22T09:47:01.062Z,3.00
2018-12-22T09:49:29.429Z,3.00
2018-12-22T09:51:57.814Z,4.27
2018-12-22T09:54:26.152Z,3.00
2018-12-22T09:56:54.521Z,3.50
2018-12-22T09:59:22.936Z,2.90
2018-12-22T10:01:51.327Z,3.73
2018-12-22T10:04:19.683Z,3.53
2018-12-22T10:06:48.052Z,3.73
2018-12-22T10:09:16.416Z,2.60
2018-12-22T10:11:44.944Z,2.60
2018-12-22T10:14:13.969Z,2.23
2018-12-22T10:16:42.336Z,2.33
2018-12-22T10:19:10.691Z,4.80
2018-12-22T10:21:39.087Z,3.00
2018-12-22T10:24:07.580Z,2.50
2018-12-22T10:26:36.179Z,2.70
2018-12-22T10:29:05.944Z,2.70
2018-12-22T10:31:34.375Z,2.17
2018-12-22T10:34:02.779Z,3.23
2018-12-22T10:36:31.159Z,2.30
2018-12-22T10:38:59.528Z,2.57
2018-12-22T10:41:27.971Z,2.43
2018-12-22T10:43:56.399Z,2.70
2018-12-22T10:46:25.445Z,3.20
2018-12-22T10:48:53.844Z,2.47
2018-12-22T10:51:24.419Z,2.67
2018-12-22T10:53:52.587Z,2.10
2018-12-22T10:56:20.950Z,2.63
2018-12-22T10:58:49.354Z,2.30
2018-12-22T11:01:26.214Z,2.50
2018-12-22T11:03:49.152Z,3.57
2018-12-22T11:06:18.547Z,3.30
2018-12-22T11:08:48.153Z,2.73
2018-12-22T11:11:16.520Z,2.47
2018-12-22T11:13:44.968Z,3.20
2018-12-22T11:16:13.328Z,2.90
2018-12-22T11:18:41.697Z,1.63
2018-12-22T11:21:10.066Z,1.70
2018-12-22T11:23:38.462Z,2.03
2018-12-22T11:26:06.860Z,2.80
2018-12-22T11:28:35.229Z,2.07
2018-12-22T11:31:03.702Z,2.33
2018-12-22T11:33:32.072Z,2.93
2018-12-22T11:36:00.597Z,2.40
2018-12-22T11:38:29.232Z,3.00
2018-12-22T11:40:57.603Z,3.30
2018-12-22T11:43:26.636Z,2.10
2018-12-22T11:45:54.981Z,2.20
2018-12-22T11:48:44.496Z,1.43
2018-12-22T11:51:12.871Z,2.07
2018-12-22T11:53:41.291Z,2.60
2018-12-22T11:56:09.719Z,2.37
2018-12-22T11:58:38.385Z,4.83
2018-12-22T12:01:07.139Z,3.37
2018-12-22T12:03:35.851Z,2.07
2018-12-22T12:06:04.217Z,3.47
2018-12-22T12:08:32.662Z,1.90
2018-12-22T12:11:01.024Z,2.43
2018-12-22T12:13:29.414Z,2.77
2018-12-22T12:16:47.186Z,3.30
2018-12-22T12:19:20.228Z,1.90
2018-12-22T12:21:49.144Z,2.50
2018-12-22T12:24:17.635Z,3.00
2018-12-22T12:26:45.987Z,2.60
2018-12-22T12:29:14.495Z,2.23
2018-12-22T12:31:42.908Z,2.73
2018-12-22T12:34:11.259Z,3.80
2018-12-22T12:36:39.696Z,4.17
2018-12-22T12:39:11.673Z,2.53
2018-12-22T12:41:40.055Z,2.73
2018-12-22T12:44:08.444Z,2.70
2018-12-22T12:46:45.400Z,2.80
2018-12-22T12:49:14.916Z,1.70
2018-12-22T12:51:43.283Z,3.33
2018-12-22T12:54:11.679Z,2.20
2018-12-22T12:56:45.065Z,3.20
2018-12-22T12:59:13.449Z,3.33
2018-12-22T13:01:41.800Z,2.77
2018-12-22T13:04:10.159Z,3.47
2018-12-22T13:06:38.532Z,2.60
2018-12-22T13:09:08.543Z,3.73
2018-12-22T13:11:37.167Z,3.63
2018-12-22T13:14:22.841Z,3.90
2018-12-22T13:16:51.646Z,2.03
2018-12-22T13:19:20.059Z,3.20
2018-12-22T13:21:51.344Z,1.80
2018-12-22T13:24:19.778Z,3.97
2018-12-22T13:26:48.230Z,2.60
2018-12-22T13:29:16.715Z,3.10
2018-12-22T13:31:45.790Z,2.20
2018-12-22T13:34:14.159Z,2.70
2018-12-22T13:36:42.545Z,3.10
2018-12-22T13:39:16.823Z,3.20
2018-12-22T13:41:45.391Z,2.50
2018-12-22T13:44:13.753Z,2.80
2018-12-22T13:46:42.115Z,3.83
2018-12-22T13:49:10.578Z,2.63
2018-12-22T13:51:41.108Z,3.00
2018-12-22T13:54:09.486Z,3.80
2018-12-22T13:56:37.860Z,3.70
2018-12-22T13:59:06.204Z,2.10
2018-12-22T14:01:38.508Z,2.23
2018-12-22T14:04:06.606Z,3.13
2018-12-22T14:06:39.892Z,3.50
2018-12-22T14:09:09.157Z,3.73
2018-12-22T14:11:37.561Z,2.87
2018-12-22T14:14:06.850Z,3.60
2018-12-22T14:16:53.147Z,3.97
2018-12-22T14:19:21.640Z,3.77
2018-12-22T14:21:50.889Z,3.20
2018-12-22T14:24:43.105Z,3.20
2018-12-22T14:27:11.866Z,3.70
2018-12-22T14:29:40.229Z,2.70
2018-12-22T14:32:08.592Z,2.20
2018-12-22T14:34:41.710Z,3.03
2018-12-22T14:37:10.088Z,3.10
2018-12-22T14:39:38.454Z,2.97
2018-12-22T14:42:06.816Z,3.50
2018-12-22T14:44:35.172Z,4.90
2018-12-22T14:47:03.988Z,3.33
2018-12-22T14:49:32.328Z,2.97
2018-12-22T14:52:00.714Z,3.13
2018-12-22T14:54:29.064Z,3.77
2018-12-22T14:56:57.896Z,3.10
2018-12-22T14:59:27.040Z,2.80
2018-12-22T15:01:58.660Z,4.03
2018-12-22T15:04:27.060Z,3.43
2018-12-22T15:06:55.412Z,2.40
2018-12-22T15:09:23.775Z,3.20
2018-12-22T15:11:52.160Z,4.60
2018-12-22T15:14:20.515Z,2.70
2018-12-22T15:16:48.900Z,3.30
2018-12-22T15:19:17.362Z,3.37
2018-12-22T15:21:46.424Z,3.00
2018-12-22T15:24:15.072Z,2.67
2018-12-22T15:26:43.515Z,4.17
2018-12-22T15:29:11.908Z,3.33
2018-12-22T15:31:40.786Z,3.90
2018-12-22T15:34:09.232Z,2.37
2018-12-22T15:36:37.636Z,2.63
2018-12-22T15:39:08.349Z,4.07
2018-12-22T15:41:36.756Z,5.27
2018-12-22T15:44:05.248Z,3.67
2018-12-22T15:46:33.797Z,3.73
2018-12-22T15:49:02.170Z,4.30
2018-12-22T15:51:30.582Z,3.83
2018-12-22T15:53:58.989Z,3.30
2018-12-22T15:56:28.313Z,3.90
2018-12-22T15:58:56.738Z,3.60
2018-12-22T16:01:25.090Z,6.33
2018-12-22T16:03:53.516Z,3.20
2018-12-22T16:06:21.896Z,3.33
2018-12-22T16:08:50.255Z,3.90
2018-12-22T16:11:18.618Z,3.77
2018-12-22T16:13:46.981Z,4.30
2018-12-22T16:16:15.332Z,3.23
2018-12-22T16:18:43.680Z,3.67
2018-12-22T16:21:12.015Z,4.37
2018-12-22T16:23:40.468Z,3.23
2018-12-22T16:26:08.812Z,3.67
2018-12-22T16:28:42.025Z,4.33
2018-12-22T16:31:10.427Z,3.43
2018-12-22T16:33:38.787Z,3.27
2018-12-22T16:36:07.239Z,2.67
2018-12-22T16:38:35.870Z,3.70
2018-12-22T16:41:04.252Z,3.90
2018-12-22T16:43:32.623Z,2.60
2018-12-22T16:46:01.895Z,3.90
2018-12-22T16:48:30.572Z,2.87
2018-12-22T16:50:58.977Z,3.23
2018-12-22T16:53:27.559Z,3.37
2018-12-22T16:55:55.920Z,2.73
2018-12-22T16:58:34.570Z,3.40
2018-12-22T17:01:17.864Z,3.50
2018-12-22T17:03:46.480Z,3.00
2018-12-22T17:06:15.856Z,3.13
2018-12-22T17:08:44.217Z,3.17
2018-12-22T17:11:12.598Z,2.93
2018-12-22T17:13:41.497Z,3.77
2018-12-22T17:16:09.875Z,3.17
2018-12-22T17:18:38.242Z,6.03
2018-12-22T17:21:49.231Z,3.20
2018-12-22T17:24:26.012Z,5.07
2018-12-22T17:26:54.392Z,4.30
2018-12-22T17:29:22.759Z,3.30
2018-12-22T17:31:51.137Z,3.53
2018-12-22T17:34:19.493Z,3.10
2018-12-22T17:36:47.912Z,4.00
2018-12-22T17:39:17.321Z,2.80
2018-12-22T17:41:46.523Z,3.77
2018-12-22T17:44:14.937Z,3.30
2018-12-22T17:46:43.315Z,4.50
2018-12-22T17:49:11.660Z,3.10
2018-12-22T17:51:40.013Z,2.83
2018-12-22T17:54:08.477Z,5.17
2018-12-22T17:56:37.223Z,4.60
2018-12-22T17:59:05.616Z,3.63
2018-12-22T18:01:34.048Z,3.37
2018-12-22T18:04:02.403Z,3.67
2018-12-22T18:06:30.776Z,3.00
2018-12-22T18:08:59.132Z,3.37
2018-12-22T18:11:27.497Z,3.33
2018-12-22T18:13:55.873Z,3.80
2018-12-22T18:16:24.306Z,3.50
2018-12-22T18:18:52.668Z,3.40
2018-12-22T18:21:21.036Z,3.20
2018-12-22T18:23:49.400Z,4.03
2018-12-22T18:26:17.747Z,4.40
2018-12-22T18:28:46.113Z,5.17
2018-12-22T18:31:14.473Z,4.13
2018-12-22T18:33:42.854Z,3.10
2018-12-22T18:36:11.232Z,3.87
2018-12-22T18:38:39.594Z,3.77
2018-12-22T18:41:08.988Z,3.10
2018-12-22T18:43:37.349Z,3.30
2018-12-22T18:46:05.811Z,3.83
2018-12-22T18:48:34.775Z,4.33
2018-12-22T18:51:03.574Z,2.93
2018-12-22T18:53:31.973Z,4.60
2018-12-22T18:56:00.679Z,4.80
2018-12-22T18:58:29.268Z,4.77
2018-12-22T19:00:57.644Z,2.90
2018-12-22T19:03:26.060Z,4.27
2018-12-22T19:05:54.468Z,3.60
2018-12-22T19:08:23.033Z,5.40
2018-12-22T19:10:55.074Z,5.03
2018-12-22T19:13:23.458Z,2.67
2018-12-22T19:15:51.812Z,4.40
2018-12-22T19:18:20.176Z,3.50
2018-12-22T19:20:51.344Z,5.70
2018-12-22T19:23:21.051Z,3.63
2018-12-22T19:25:49.404Z,3.53
2018-12-22T19:28:17.753Z,3.77
2018-12-22T19:30:46.133Z,4.07
2018-12-22T19:33:14.532Z,4.77
2018-12-22T19:35:42.896Z,3.40
2018-12-22T19:38:11.247Z,3.87
2018-12-22T19:40:39.621Z,3.57
2018-12-22T19:43:07.996Z,2.70
2018-12-22T19:45:36.340Z,2.87
2018-12-22T19:48:04.769Z,4.17
2018-12-22T19:50:33.165Z,3.77
2018-12-22T19:53:01.516Z,3.60
2018-12-22T19:55:29.886Z,4.40
2018-12-22T19:57:58.227Z,3.17
2018-12-22T20:00:26.595Z,1.77
2018-12-22T20:02:54.954Z,2.63
2018-12-22T20:05:23.356Z,2.80
2018-12-22T20:07:51.724Z,4.27
2018-12-22T20:10:20.095Z,2.80
2018-12-22T20:12:48.445Z,3.50
2018-12-22T20:15:17.395Z,3.43
2018-12-22T20:17:45.849Z,4.17
2018-12-22T20:20:14.461Z,3.17
2018-12-22T20:22:42.831Z,3.70
2018-12-22T20:25:11.178Z,4.07
2018-12-22T20:27:39.562Z,4.27
2018-12-22T20:30:08.653Z,3.20
2018-12-22T20:32:37.016Z,3.37
2018-12-22T20:35:05.813Z,3.83
2018-12-22T20:37:34.184Z,3.23
2018-12-22T20:40:03.459Z,2.90
2018-12-22T20:42:31.918Z,3.63
2018-12-22T20:45:00.276Z,3.20
2018-12-22T20:47:28.645Z,4.47
2018-12-22T20:49:56.997Z,3.47
2018-12-22T20:52:25.364Z,3.80
2018-12-22T20:54:53.764Z,4.20
2018-12-22T20:57:22.127Z,5.63
2018-12-22T20:59:50.472Z,5.40
2018-12-22T21:02:18.827Z,4.10
2018-12-22T21:04:47.213Z,4.67
2018-12-22T21:07:15.587Z,4.13
2018-12-22T21:09:43.942Z,4.70
2018-12-22T21:12:12.291Z,4.80
2018-12-22T21:14:40.656Z,4.97
2018-12-22T21:17:09.112Z,3.57
2018-12-22T21:19:37.491Z,4.43
2018-12-22T21:22:06.361Z,5.70
2018-12-22T21:24:34.742Z,4.40
2018-12-22T21:27:03.093Z,4.50
2018-12-22T21:29:31.464Z,5.30
2018-12-22T21:32:00.657Z,3.63
2018-12-22T21:34:29.210Z,4.03
2018-12-22T21:36:57.561Z,4.13
2018-12-22T21:39:26.129Z,4.00
2018-12-22T21:41:54.493Z,4.80
2018-12-22T21:44:22.864Z,3.83
2018-12-22T21:46:51.237Z,5.27
2018-12-22T21:49:19.611Z,3.40
2018-12-22T21:51:47.973Z,3.30
2018-12-22T21:54:16.344Z,3.50
2018-12-22T21:56:44.711Z,5.17
2018-12-22T21:59:13.092Z,4.63
2018-12-22T22:01:41.443Z,4.87
2018-12-22T22:04:10.263Z,4.40
2018-12-22T22:06:39.248Z,3.80
2018-12-22T22:09:07.636Z,4.10
2018-12-22T22:11:35.999Z,3.80
2018-12-22T22:14:04.835Z,4.53
2018-12-22T22:16:33.207Z,4.67
2018-12-22T22:19:01.579Z,3.63
2018-12-22T22:21:29.951Z,6.07
2018-12-22T22:23:58.315Z,4.03
2018-12-22T22:26:26.671Z,4.70
2018-12-22T22:28:55.178Z,5.67
2018-12-22T22:31:23.589Z,5.53
2018-12-22T22:33:51.949Z,4.67
2018-12-22T22:36:20.338Z,4.37
2018-12-22T22:38:48.723Z,5.53
2018-12-22T22:41:17.110Z,4.40
2018-12-22T22:43:45.520Z,5.33
2018-12-22T22:46:13.902Z,7.23
2018-12-22T22:48:42.249Z,5.83
2018-12-22T22:51:10.624Z,5.23
2018-12-22T22:53:38.988Z,5.50
2018-12-22T22:56:07.373Z,4.30
2018-12-22T22:58:35.774Z,5.07
2018-12-22T23:01:05.498Z,5.97
2018-12-22T23:03:33.859Z,5.90
2018-12-22T23:06:02.249Z,6.20
2018-12-22T23:08:30.604Z,5.50
2018-12-22T23:10:58.967Z,5.60
2018-12-22T23:13:27.315Z,3.70
2018-12-22T23:15:55.700Z,4.03
2018-12-22T23:18:24.107Z,4.17
2018-12-22T23:20:52.451Z,3.30
2018-12-22T23:23:20.815Z,4.47
2018-12-22T23:25:49.167Z,4.33
2018-12-22T23:28:17.544Z,4.30
2018-12-22T23:30:45.900Z,3.97
2018-12-22T23:33:14.279Z,3.30
2018-12-22T23:35:42.622Z,4.67
2018-12-22T23:38:11.021Z,4.47
2018-12-22T23:40:39.426Z,2.80
2018-12-22T23:43:07.847Z,5.20
2018-12-22T23:45:36.267Z,7.20
2018-12-22T23:48:04.729Z,5.97
2018-12-22T23:50:33.079Z,6.60
2018-12-22T23:53:01.468Z,6.13
2018-12-22T23:55:30.084Z,5.73
2018-12-22T23:57:58.468Z,6.37
